Main page
METAR-TAF:

METAR-TAF

Airports :

Curaçao International Airport

Curaçao, Netherlands Antilles

latitude: 12-12N, longitude: 068-58W, elevation: 9 m

Current weather observation

The report was made 23 minutes ago, at 23:00 UTC
Wind 11 kt from the East/Southeast
Temperature 26°C
Humidity 74%
Pressure 1014 hPa
Visibility 10 km or more

METAR: TNCC 212300Z AUTO 11011KT 9999 NSC 26/21 Q1014 NOSIG

Time: 19:23 (23:23 UTC)

Forecast

The report was made 7 hours and 23 minutes ago, at 16:00 UTC
Forecast valid from 21 at 18 UTC to 22 at 18 UTC
Wind 15 kt from the East
Visibility 10 km or more
Scattered clouds at a height of 1800 ft
Temporary
from 22 at 04 UTC to 22 at 10 UTC
Broken clouds at a height of 1400 ft

TAF: TNCC 211600Z 2118/2218 10015KT 9999 SCT018 TEMPO 2204/2210 BKN014

Weather observations and forecasts of more than 4000 airports (METAR and TAF reports).

The available stations are represented by yellow and red dots on the map.

Hover mouse over dot to see the name of the station.

Then click to see weather observations and forecasts.

To change the map : click on the green buttons with a black cross to zoom in, on the green button with a dash to zoom out, or on the green arrows for adjacent maps.


METAR-TAF: